Αναφορές METAR από Ελληνικά Αεροδρόμια

Σε αυτή τη σελίδα, μπορείτε να παρακολουθείτε τις αναφορές METAR που προέρχονται από τα κυριότερα αεροδρόμια της Ελλάδας. Το περιεχόμενο αποκωδικοποιείται, οπτικοποιείται και γίνεται κατανοητό από τον καθένα με τη χρήση του όμορφου δίγλωσσου γραφικού περιβάλλοντος του meteothes.gr!

Η αρχική κωδικοποιημένη αναφορά, συμπεριλαμβάνεται επίσης στο κάτω μέρος. Σε όποια καθεστερεί η ενημέρωση, το προειδοποιητικό μήνυμα "Μη ενημερωμένο METAR!" εμφανίζεται στο πάνω μέρος της με κόκκινα γράμματα.

Εχουν προστεθεί επίσης δύο αεροδρόμια από γειτονικές χώρες, την Οχρίδα(ΠΓΔΜ) και την Σόφια(Βουλγαρία) για να ελέγχουμε την εξέλιξη των ψυχρών εισβολών από τα Βόρεια!

LGTS - Thessaloniki/Makedonia-Elev 7m
Απόσταση από meteothes.gr: Ν 13km
Ενημερώθηκε: 22/09/2020 04:20
Διάσπαρτα Nέφη
Διάσπαρτα Nέφη
 Ανεμος από ΝΑ
Ανεμος: ΝΑ 9 km/h
Θερμοκρασία: 18°C
Σημ. Δρόσου: 13°C
Υγρασία: 73%
Βαρόμετρο: 1019 hPa
Νέφωση: Διάσπαρτα Nέφη
Ορατότητα: 10 km
Λεπτομέρειες Νεφών: Διάσπαρτα Nέφη 762 m
2020/09/22 01:20 LGTS 220120Z 13005KT 9999 FEW025 18/13 Q1019 NOSIG
LGAV - Athens/Elef. Venizelos-Elev 94m
Απόσταση από meteothes.gr: ΝΝΑ 312km
Ενημερώθηκε: 22/09/2020 04:50
Διάσπαρτα Nέφη
Διάσπαρτα Nέφη
 Ανεμος από Β
Ανεμος: Β 11 km/h
Θερμοκρασία: 21°C
Σημ. Δρόσου: 14°C
Υγρασία: 64%
Βαρόμετρο: 1017 hPa
Νέφωση: Διάσπαρτα Nέφη
Ορατότητα: 10 km
Λεπτομέρειες Νεφών: Διάσπαρτα Nέφη 914 m
2020/09/22 01:50 LGAV 220150Z 36006KT 9999 FEW030 21/14 Q1017 NOSIG
 
LGAL - Alexandroupolis-Elev 3m
Απόσταση από meteothes.gr: Α 251km
Ενημερώθηκε: 22/09/2020 03:50
Αίθριος
Αίθριος
 Ανεμος από Β
Ανεμος: Β 11 km/h
Θερμοκρασία: 19°C
Σημ. Δρόσου: 14°C
Υγρασία: 73%
Βαρόμετρο: 1018 hPa
Συνθήκες: Αίθριος
Ορατότητα: πάνω από 10 km
2020/09/22 00:50 LGAL 220050Z 01006KT CAVOK 19/14 Q1018
LGKV - Kavala/Crysoupolis-Elev 5m
Απόσταση από meteothes.gr: ΑΒΑ 144km
Ενημερώθηκε: 22/09/2020 03:50
Αίθριος
Αίθριος
 Ανεμος από Α
Ανεμος: Α 6 km/h
Θερμοκρασία: 18°C
Σημ. Δρόσου: 13°C
Υγρασία: 73%
Βαρόμετρο: 1018 hPa
Συνθήκες: Αίθριος
Ορατότητα: πάνω από 10 km
2020/09/22 00:50 LGKV 220050Z 09003KT CAVOK 18/13 Q1018
 
LGSK - Skiathos Island-Elev 15m
Απόσταση από meteothes.gr: ΝΝΑ 168km
Ενημερώθηκε: 21/09/2020 19:50
ΜΗ Ενημερωμένο METAR!
Διάσπαρτα Nέφη
Διάσπαρτα Nέφη
 Ανεμος από ΒΒΑ
Ανεμος: ΒΒΑ 7 km/h
Θερμοκρασία: 21°C
Σημ. Δρόσου: 16°C
Υγρασία: 73%
Βαρόμετρο: 1017 hPa
Νέφωση: Διάσπαρτα Nέφη
Ορατότητα: 10 km
Λεπτομέρειες Νεφών: Διάσπαρτα Nέφη 762 m
2020/09/21 16:50 LGSK 211650Z 02004KT 9999 FEW025 21/16 Q1017
LGLM - Limnos Island-Elev 5m
Απόσταση από meteothes.gr: ΑΝΑ 210km
Ενημερώθηκε: 22/09/2020 03:50
Αίθριος
Αίθριος
 Ανεμος από ΒΑ
Ανεμος: ΒΑ 20 km/h
Θερμοκρασία: 19°C
Σημ. Δρόσου: 16°C
Υγρασία: 83%
Βαρόμετρο: 1017 hPa
Συνθήκες: Αίθριος
Ορατότητα: πάνω από 10 km
2020/09/22 00:50 LGLM 220050Z 04011KT CAVOK 19/16 Q1017
 
LGMT - Mitilini Island-Elev 17m
Απόσταση από meteothes.gr: ΑΝΑ 358km
Ενημερώθηκε: 22/09/2020 03:50
Αίθριος
Αίθριος
 Ανεμος από Δ
Ανεμος: Δ 7 km/h
Θερμοκρασία: 21°C
Σημ. Δρόσου: 17°C
Υγρασία: 78%
Βαρόμετρο: 1016 hPa
Συνθήκες: Αίθριος
Ορατότητα: πάνω από 10 km
2020/09/22 00:50 LGMT 220050Z 28004KT CAVOK 21/17 Q1016
LGSY - Skiros Island-Elev 15m
Απόσταση από meteothes.gr: ΝΑ 227km
Ενημερώθηκε: 21/09/2020 21:50
ΜΗ Ενημερωμένο METAR!
Διάσπαρτα Nέφη
Διάσπαρτα Nέφη
 Ανεμος από ΒΔ
Ανεμος: ΒΔ 22 km/h
Θερμοκρασία: 22°C
Σημ. Δρόσου: 16°C
Υγρασία: 69%
Βαρόμετρο: 1017 hPa
Νέφωση: Διάσπαρτα Nέφη
Ορατότητα: 10 km
Λεπτομέρειες Νεφών: Διάσπαρτα Nέφη 610 m
2020/09/21 18:50 LGSY 211850Z 32012KT 9999 FEW020 22/16 Q1017 RMK FEW070 BLU
 
LGKZ - Kozani-Elev 628m
Απόσταση από meteothes.gr: ΔΝΔ 102km
Ενημερώθηκε: 22/09/2020 04:20

 Ανεμος από Β
Ανεμος: Β 9 km/h
Θερμοκρασία: 12°C
Σημ. Δρόσου: 9°C
Υγρασία: 82%
Βαρόμετρο: 1021 hPa
2020/09/22 01:20 LGKZ 220120Z AUTO 36005KT //// // ////// 12/09 Q1021 RE//
LGIO - Ioannina-Elev 476m
Απόσταση από meteothes.gr: ΔΝΔ 209km
Ενημερώθηκε: 22/09/2020 04:20

 Ανεμος από άπνοια
Ανεμος: άπνοια
Θερμοκρασία: 15°C
Σημ. Δρόσου: 14°C
Υγρασία: 94%
Βαρόμετρο: 1019 hPa
2020/09/22 01:20 LGIO 220120Z AUTO 00000KT //// // ////// 15/14 Q1019 RE//
 
LGZA - Zakinthos-Elev 3m
Απόσταση από meteothes.gr: ΝΝΔ 367km
Ενημερώθηκε: 21/09/2020 20:50
ΜΗ Ενημερωμένο METAR!
Αίθριος
Αίθριος
 Ανεμος από άπνοια
Ανεμος: άπνοια
Θερμοκρασία: 22°C
Σημ. Δρόσου: 17°C
Υγρασία: 73%
Βαρόμετρο: 1016 hPa
Συνθήκες: Αίθριος
Ορατότητα: πάνω από 10 km
2020/09/21 17:50 LGZA 211750Z 00000KT CAVOK 22/17 Q1016
LGKR - Corfu Island-Elev 2m
Απόσταση από meteothes.gr: ΔΝΔ 282km
Ενημερώθηκε: 22/09/2020 04:50
Κυρίως νεφελώδης
Κυρίως νεφελώδης
 Ανεμος από μεταβλητός
Ανεμος: μεταβλητός 0 km/h
Θερμοκρασία: 20°C
Σημ. Δρόσου: 17°C
Υγρασία: 83%
Βαρόμετρο: 1016 hPa
Νέφωση: Κυρίως νεφελώδης
Ορατότητα: 10 km
Λεπτομέρειες Νεφών: Κυρίως νεφελώδης 610 m
2020/09/22 01:50 LGKR 220150Z /////KT 9999 BKN020 20/17 Q1016 NOSIG
 
LGSO - Syros Island-Elev 72m
Απόσταση από meteothes.gr: ΝΝΑ 397km
Ενημερώθηκε: 22/09/2020 04:20

 Ανεμος από ΒΒΔ
Ανεμος: ΒΒΔ 19 km/h
Θερμοκρασία: 22°C
Σημ. Δρόσου: 16°C
Υγρασία: 69%
Βαρόμετρο: 1016 hPa
2020/09/22 01:20 LGSO 220120Z AUTO 34010KT //// // ////// 22/16 Q1016 RE//
LGMK - Mikonos Island-Elev 123m
Απόσταση από meteothes.gr: ΝΝΑ 412km
Ενημερώθηκε: 22/09/2020 03:50
Διάσπαρτα Nέφη
Διάσπαρτα Nέφη
 Ανεμος από Β
Ανεμος: Β 30 km/h
Θερμοκρασία: 21°C
Σημ. Δρόσου: 13°C
Υγρασία: 60%
Βαρόμετρο: 1015 hPa
Νέφωση: Διάσπαρτα Nέφη
Ορατότητα: 10 km
Λεπτομέρειες Νεφών: Διάσπαρτα Nέφη 305 m
2020/09/22 00:50 LGMK 220050Z 35016KT 9999 FEW010 21/13 Q1015
 
LGSR - Santorini Island-Elev 40m
Απόσταση από meteothes.gr: ΝΝΑ 520km
Ενημερώθηκε: 22/09/2020 04:20
Αίθριος
Αίθριος
 Ανεμος από ΔΒΔ
Ανεμος: ΔΒΔ 13 km/h
Θερμοκρασία: 21°C
Σημ. Δρόσου: 18°C
Υγρασία: 83%
Βαρόμετρο: 1015 hPa
Συνθήκες: Αίθριος
Ορατότητα: πάνω από 10 km
2020/09/22 01:20 LGSR 220120Z 30007KT CAVOK 21/18 Q1015
LGKL - Kalamata-Elev 8m
Απόσταση από meteothes.gr: Ν 405km
Ενημερώθηκε: 22/09/2020 04:20
Αίθριος
Αίθριος
 Ανεμος από Β
Ανεμος: Β 6 km/h
Θερμοκρασία: 16°C
Σημ. Δρόσου: 14°C
Υγρασία: 88%
Βαρόμετρο: 1017 hPa
Συνθήκες: Αίθριος
Ορατότητα: πάνω από 10 km
2020/09/22 01:20 LGKL 220120Z 35003KT CAVOK 16/14 Q1017
 
LGIR - Iraklion/Crete-Elev 5m
Απόσταση από meteothes.gr: ΝΝΑ 622km
Ενημερώθηκε: 22/09/2020 04:50
Μερικώς νεφελώδης
Μερικώς νεφελώδης
 Ανεμος από Δ
Ανεμος: Δ 13 km/h
Θερμοκρασία: 23°C
Σημ. Δρόσου: 18°C
Υγρασία: 74%
Βαρόμετρο: 1016 hPa
Νέφωση: Μερικώς νεφελώδης
Ορατότητα: 10 km
Λεπτομέρειες Νεφών: Μερικώς νεφελώδης 610 m
2020/09/22 01:50 LGIR 220150Z 27007KT 9999 SCT020 23/18 Q1016 NOSIG
LGRP - Rhodes-Elev 5m
Απόσταση από meteothes.gr: ΝΑ 649km
Ενημερώθηκε: 22/09/2020 04:50
Διάσπαρτα Nέφη
Διάσπαρτα Nέφη
 Ανεμος από ΝΔ
Ανεμος: ΝΔ 20 km/h
Θερμοκρασία: 24°C
Σημ. Δρόσου: 19°C
Υγρασία: 74%
Βαρόμετρο: 1011 hPa
Νέφωση: Διάσπαρτα Nέφη
Ορατότητα: 10 km
Λεπτομέρειες Νεφών: Διάσπαρτα Nέφη 549 m
2020/09/22 01:50 LGRP 220150Z 23011KT 9999 FEW018 24/19 Q1011 NOSIG
 
LWOH - Ohrid/FYROM-Elev 761m
Απόσταση από meteothes.gr: ΔΒΔ 188km
Ενημερώθηκε: 21/09/2020 21:00
ΜΗ Ενημερωμένο METAR!
Διάσπαρτα Nέφη
Διάσπαρτα Nέφη
 Ανεμος από ΒΒΔ
Ανεμος: ΒΒΔ 4 km/h
Θερμοκρασία: 17°C
Σημ. Δρόσου: 10°C
Υγρασία: 64%
Βαρόμετρο: 1019 hPa
Νέφωση: Διάσπαρτα Nέφη
Ορατότητα: 10 km
Λεπτομέρειες Νεφών: Διάσπαρτα Nέφη 1219 m
2020/09/21 18:00 LWOH 211800Z 34002KT 9999 FEW040 17/10 Q1019
LBSF - Sofia/Bulgaria-Elev 595m
Απόσταση από meteothes.gr: Β 227km
Ενημερώθηκε: 22/09/2020 04:30
Αίθριος
Αίθριος
 Ανεμος από ΝΑ
Ανεμος: ΝΑ 9 km/h
Θερμοκρασία: 12°C
Σημ. Δρόσου: 8°C
Υγρασία: 77%
Βαρόμετρο: 1021 hPa
Συνθήκες: Αίθριος
Ορατότητα: πάνω από 10 km
2020/09/22 01:30 LBSF 220130Z 13005KT CAVOK 12/08 Q1021 NOSIG

(*) Μερικές αναφορές παρουσιάζουν λιγότερα στοιχεία γιατί οι αρχικές είναι ελλιπείς ή έχουν λάθος μορφοποίηση!